Terminal Aerodrome Forecast
Issued by NWS

Home | Current Version | Previous Version | Text Only | Print | Product List | Glossary On
Versions: 1 2 3 4 5 6 7 8 9 10 11 12 13 14 15 16 17 18 19 20 21
166
FTUS46 KMTR 300522
TAFSNS
TAF
KSNS 300522Z 3006/3106 29005KT P6SM OVC007
     FM301600 12006KT P6SM OVC010
     FM301800 VRB03KT P6SM SCT015
     FM302000 29010KT P6SM SKC
     FM310300 29005KT P6SM BKN010=

USA.gov is the U.S. government's official web portal to all federal, state and local government web resources and services.